createdAt,value
2022-08-30T00:00:07.216Z,20.51
2022-08-30T00:02:35.510Z,20.52
2022-08-30T00:05:04.060Z,20.50
2022-08-30T00:07:31.638Z,20.60
2022-08-30T00:10:01.803Z,20.59
2022-08-30T00:12:31.871Z,20.59
2022-08-30T00:14:59.783Z,20.57
2022-08-30T00:17:27.300Z,20.58
2022-08-30T00:19:56.111Z,20.48
2022-08-30T00:22:26.403Z,20.53
2022-08-30T00:24:55.161Z,20.55
2022-08-30T00:27:22.790Z,20.51
2022-08-30T00:29:53.727Z,20.45
2022-08-30T00:32:21.939Z,20.55
2022-08-30T00:34:51.658Z,20.56
2022-08-30T00:37:20.171Z,20.49
2022-08-30T00:39:48.439Z,20.45
2022-08-30T00:42:17.598Z,20.42
2022-08-30T00:44:45.853Z,20.51
2022-08-30T00:47:17.494Z,20.45
2022-08-30T00:49:49.721Z,20.40
2022-08-30T00:52:20.945Z,20.37
2022-08-30T00:54:51.110Z,20.44
2022-08-30T00:57:19.464Z,20.46
2022-08-30T00:59:49.769Z,20.50
2022-08-30T01:02:22.822Z,20.47
2022-08-30T01:04:54.332Z,20.51
2022-08-30T01:07:22.106Z,20.47
2022-08-30T01:09:49.759Z,20.55
2022-08-30T01:12:17.755Z,20.54
2022-08-30T01:14:50.554Z,20.56
2022-08-30T01:17:21.285Z,20.49
2022-08-30T01:20:08.923Z,20.55
2022-08-30T01:22:51.379Z,20.52
2022-08-30T01:25:28.812Z,20.57
2022-08-30T01:28:04.503Z,20.41
2022-08-30T01:30:33.715Z,20.45
2022-08-30T01:33:04.715Z,20.51
2022-08-30T01:35:46.215Z,20.52
2022-08-30T01:38:15.960Z,20.41
2022-08-30T01:40:43.959Z,20.36
2022-08-30T01:43:14.048Z,20.47
2022-08-30T01:45:42.068Z,20.48
2022-08-30T01:48:12.992Z,20.47
2022-08-30T01:50:41.770Z,20.41
2022-08-30T01:53:13.155Z,20.39
2022-08-30T01:55:42.419Z,20.43
2022-08-30T01:58:10.176Z,20.37
2022-08-30T02:00:38.825Z,20.41
2022-08-30T02:03:07.036Z,20.37
2022-08-30T02:05:34.845Z,20.36
2022-08-30T02:08:03.655Z,20.28
2022-08-30T02:10:31.409Z,20.33
2022-08-30T02:13:03.180Z,20.28
2022-08-30T02:15:30.839Z,20.23
2022-08-30T02:18:01.771Z,20.13
2022-08-30T02:20:29.332Z,20.13
2022-08-30T02:23:00.853Z,20.04
2022-08-30T02:25:28.957Z,19.96
2022-08-30T02:27:56.591Z,19.99
2022-08-30T02:30:24.249Z,19.78
2022-08-30T02:32:52.476Z,19.94
2022-08-30T02:35:19.969Z,19.80
2022-08-30T02:37:47.510Z,19.89
2022-08-30T02:40:15.129Z,19.91
2022-08-30T02:42:42.737Z,19.81
2022-08-30T02:45:10.882Z,19.77
2022-08-30T02:47:38.412Z,19.80
2022-08-30T02:50:07.810Z,19.86
2022-08-30T02:52:35.299Z,19.79
2022-08-30T02:55:04.365Z,19.88
2022-08-30T02:57:31.956Z,19.84
2022-08-30T02:59:59.744Z,19.82
2022-08-30T03:02:30.429Z,19.84
2022-08-30T03:04:57.988Z,19.86
2022-08-30T03:07:25.494Z,19.86
2022-08-30T03:09:53.030Z,19.87
2022-08-30T03:12:20.752Z,19.78
2022-08-30T03:14:48.605Z,19.81
2022-08-30T03:17:18.427Z,19.85
2022-08-30T03:19:46.726Z,19.87
2022-08-30T03:22:14.266Z,19.86
2022-08-30T03:24:41.763Z,19.98
2022-08-30T03:27:09.767Z,20.04
2022-08-30T03:29:37.504Z,19.97
2022-08-30T03:32:12.331Z,20.11
2022-08-30T03:34:40.261Z,20.05
2022-08-30T03:37:08.351Z,20.03
2022-08-30T03:39:41.694Z,20.28
2022-08-30T03:42:12.048Z,20.29
2022-08-30T03:44:39.990Z,20.31
2022-08-30T03:47:08.580Z,20.39
2022-08-30T03:49:36.295Z,20.56
2022-08-30T03:52:06.926Z,20.64
2022-08-30T03:54:34.495Z,20.58
2022-08-30T03:57:04.079Z,20.71
2022-08-30T03:59:31.679Z,20.77
2022-08-30T04:01:59.490Z,20.83
2022-08-30T04:04:27.228Z,20.91
2022-08-30T04:06:55.535Z,20.95
2022-08-30T04:09:23.591Z,21.00
2022-08-30T04:11:51.359Z,21.08
2022-08-30T04:14:19.090Z,21.10
2022-08-30T04:16:46.721Z,21.14
2022-08-30T04:19:14.353Z,21.21
2022-08-30T04:21:42.746Z,21.25
2022-08-30T04:24:13.992Z,21.34
2022-08-30T04:26:41.817Z,21.34
2022-08-30T04:29:12.430Z,21.56
2022-08-30T04:31:40.087Z,21.68
2022-08-30T04:34:10.709Z,21.83
2022-08-30T04:36:38.747Z,21.98
2022-08-30T04:39:13.528Z,22.15
2022-08-30T04:41:43.528Z,22.09
2022-08-30T04:44:19.192Z,22.38
2022-08-30T04:46:48.087Z,22.43
2022-08-30T04:49:15.694Z,22.61
2022-08-30T04:51:43.305Z,22.74
2022-08-30T04:54:10.988Z,22.73
2022-08-30T04:56:39.175Z,22.90
2022-08-30T04:59:06.837Z,23.03
2022-08-30T05:01:44.545Z,23.16
2022-08-30T05:04:15.095Z,23.34
2022-08-30T05:06:43.474Z,23.37
2022-08-30T05:09:11.449Z,23.40
2022-08-30T05:11:39.014Z,23.47
2022-08-30T05:14:06.691Z,23.50
2022-08-30T05:16:34.477Z,23.59
2022-08-30T05:19:02.093Z,23.65
2022-08-30T05:21:29.726Z,23.84
2022-08-30T05:23:59.975Z,23.92
2022-08-30T05:26:30.263Z,24.13
2022-08-30T05:28:58.505Z,24.22
2022-08-30T05:31:33.182Z,24.38
2022-08-30T05:34:05.363Z,24.28
2022-08-30T05:36:36.249Z,24.40
2022-08-30T05:39:06.003Z,24.52
2022-08-30T05:41:34.126Z,24.70
2022-08-30T05:44:03.161Z,24.87
2022-08-30T05:49:07.827Z,25.10
2022-08-30T05:51:42.857Z,25.31
2022-08-30T05:54:13.269Z,25.48
2022-08-30T05:56:42.413Z,25.66
2022-08-30T05:59:10.209Z,25.79
2022-08-30T06:01:47.734Z,26.03
2022-08-30T06:04:15.716Z,26.10
2022-08-30T06:06:44.593Z,26.23
2022-08-30T06:09:13.735Z,26.44
2022-08-30T06:11:41.875Z,26.55
2022-08-30T06:14:09.608Z,26.77
2022-08-30T06:16:39.422Z,26.87
2022-08-30T06:19:08.915Z,27.11
2022-08-30T06:21:37.695Z,27.35
2022-08-30T06:24:07.307Z,27.55
2022-08-30T06:26:45.554Z,27.76
2022-08-30T06:29:16.772Z,28.05
2022-08-30T06:31:44.822Z,28.26
2022-08-30T06:34:12.408Z,28.59
2022-08-30T06:36:40.866Z,28.90
2022-08-30T06:39:09.002Z,29.19
2022-08-30T06:41:38.939Z,29.51
2022-08-30T06:44:15.440Z,29.75
2022-08-30T06:46:43.074Z,30.02
2022-08-30T06:49:10.628Z,30.49
2022-08-30T06:51:39.963Z,30.78
2022-08-30T06:54:10.862Z,31.09
2022-08-30T06:56:55.221Z,31.36
2022-08-30T06:59:26.936Z,31.53
2022-08-30T07:01:55.851Z,31.84
2022-08-30T07:04:24.197Z,32.22
2022-08-30T07:06:51.742Z,32.51
2022-08-30T07:09:19.786Z,32.86
2022-08-30T07:11:51.786Z,33.13
2022-08-30T07:14:20.724Z,32.65
2022-08-30T07:16:51.282Z,31.75
2022-08-30T07:19:21.348Z,31.37
2022-08-30T07:21:49.933Z,30.86
2022-08-30T07:24:18.714Z,30.47
2022-08-30T07:26:50.008Z,30.10
2022-08-30T07:29:18.646Z,30.08
2022-08-30T07:31:46.513Z,30.14
2022-08-30T07:34:13.969Z,30.47
2022-08-30T07:36:41.447Z,30.99
2022-08-30T07:39:09.959Z,31.46
2022-08-30T07:41:41.124Z,31.92
2022-08-30T07:44:09.162Z,32.51
2022-08-30T07:46:39.926Z,32.73
2022-08-30T07:49:11.317Z,32.56
2022-08-30T07:51:40.269Z,32.90
2022-08-30T07:54:09.243Z,32.99
2022-08-30T07:56:45.538Z,32.84
2022-08-30T07:59:13.021Z,32.92
2022-08-30T08:01:42.852Z,33.37
2022-08-30T08:04:13.256Z,33.42
2022-08-30T08:06:41.355Z,33.64
2022-08-30T08:09:09.501Z,33.95
2022-08-30T08:11:37.150Z,34.43
2022-08-30T08:14:04.758Z,35.30
2022-08-30T08:16:37.168Z,36.01
2022-08-30T08:19:09.118Z,36.72
2022-08-30T08:21:39.987Z,36.81
2022-08-30T08:24:08.087Z,37.03
2022-08-30T08:26:40.981Z,36.99
2022-08-30T08:29:13.208Z,37.01
2022-08-30T08:31:41.843Z,37.00
2022-08-30T08:34:11.723Z,37.04
2022-08-30T08:36:40.481Z,37.54
2022-08-30T08:39:09.665Z,37.98
2022-08-30T08:41:49.271Z,38.52
2022-08-30T08:44:22.906Z,39.12
2022-08-30T08:46:59.109Z,39.93
2022-08-30T08:49:26.954Z,40.44
2022-08-30T08:52:14.079Z,40.53
2022-08-30T08:54:56.388Z,40.40
2022-08-30T08:57:33.587Z,40.15
2022-08-30T09:00:03.331Z,40.20
2022-08-30T09:03:04.437Z,41.03
2022-08-30T09:05:38.562Z,41.27
2022-08-30T09:08:11.709Z,41.44
2022-08-30T09:10:50.317Z,41.52
2022-08-30T09:13:22.743Z,41.72
2022-08-30T09:15:56.610Z,41.94
2022-08-30T09:18:52.580Z,42.69
2022-08-30T09:21:26.768Z,42.47
2022-08-30T09:24:04.708Z,42.26
2022-08-30T09:26:36.267Z,42.54
2022-08-30T09:29:06.139Z,43.12
2022-08-30T09:32:10.142Z,43.79
2022-08-30T09:34:43.766Z,43.79
2022-08-30T09:37:29.842Z,44.10
2022-08-30T09:39:58.276Z,43.48
2022-08-30T09:42:29.798Z,42.53
2022-08-30T09:45:10.579Z,41.44
2022-08-30T09:47:43.223Z,40.51
2022-08-30T09:50:14.785Z,39.86
2022-08-30T09:53:12.299Z,39.68
2022-08-30T09:56:27.198Z,39.09
2022-08-30T09:59:11.182Z,38.45
2022-08-30T10:02:14.143Z,38.53
2022-08-30T10:05:00.338Z,37.64
2022-08-30T10:08:06.306Z,37.51
2022-08-30T10:10:45.231Z,37.66
2022-08-30T10:13:33.779Z,38.25
2022-08-30T10:16:25.796Z,39.15
2022-08-30T10:19:04.158Z,40.43
2022-08-30T10:22:10.845Z,42.41
2022-08-30T10:24:43.967Z,43.75
2022-08-30T10:27:18.441Z,44.32
2022-08-30T10:29:59.740Z,44.26
2022-08-30T10:32:39.720Z,43.14
2022-08-30T10:35:19.613Z,42.55
2022-08-30T10:37:56.131Z,41.06
2022-08-30T10:40:42.284Z,39.84
2022-08-30T10:43:26.256Z,39.43
2022-08-30T10:45:57.225Z,38.59
2022-08-30T10:48:33.805Z,38.00
2022-08-30T10:51:11.598Z,37.40
2022-08-30T10:53:51.160Z,37.08
2022-08-30T10:56:24.540Z,36.98
2022-08-30T10:58:59.232Z,37.48
2022-08-30T11:01:36.319Z,39.63
2022-08-30T11:04:32.061Z,42.25
2022-08-30T11:07:26.877Z,43.59
2022-08-30T11:10:20.300Z,44.04
2022-08-30T11:12:58.584Z,43.20
2022-08-30T11:15:34.618Z,43.60
2022-08-30T11:18:10.793Z,44.59
2022-08-30T11:20:50.927Z,44.28
2022-08-30T11:23:36.483Z,43.36
2022-08-30T11:26:08.732Z,44.97
2022-08-30T11:28:46.356Z,44.90
2022-08-30T11:31:23.572Z,45.21
2022-08-30T11:34:00.946Z,45.73
2022-08-30T11:36:28.730Z,46.27
2022-08-30T11:39:41.847Z,46.98
2022-08-30T11:42:29.403Z,44.98
2022-08-30T11:45:25.507Z,42.97
2022-08-30T11:48:00.054Z,40.52
2022-08-30T11:51:14.177Z,39.25
2022-08-30T11:53:55.686Z,37.90
2022-08-30T11:56:37.850Z,37.11
2022-08-30T11:59:26.110Z,38.14
2022-08-30T12:01:57.261Z,40.22
2022-08-30T12:04:56.337Z,42.88
2022-08-30T12:07:57.507Z,44.50
2022-08-30T12:10:41.790Z,45.39
2022-08-30T12:13:35.024Z,46.46
2022-08-30T12:16:12.247Z,46.79
2022-08-30T12:19:06.689Z,46.95
2022-08-30T12:21:45.111Z,47.18
2022-08-30T12:24:26.371Z,47.79
2022-08-30T12:26:54.773Z,47.54
2022-08-30T12:29:31.069Z,47.19
2022-08-30T12:32:05.394Z,46.61
2022-08-30T12:34:50.940Z,46.76
2022-08-30T12:37:33.763Z,46.23
2022-08-30T12:40:06.676Z,46.04
2022-08-30T12:42:37.836Z,46.01
2022-08-30T12:45:13.090Z,45.40
2022-08-30T12:47:49.456Z,44.76
2022-08-30T12:50:22.306Z,42.98
2022-08-30T12:53:21.989Z,41.77
2022-08-30T12:56:49.950Z,42.73
2022-08-30T13:00:05.787Z,43.47
2022-08-30T13:02:52.236Z,43.70
2022-08-30T13:05:44.347Z,43.28
2022-08-30T13:08:18.830Z,42.13
2022-08-30T13:11:07.328Z,41.37
2022-08-30T13:13:45.805Z,40.09
2022-08-30T13:16:23.002Z,38.28
2022-08-30T13:18:53.527Z,36.66
2022-08-30T13:21:47.256Z,35.60
2022-08-30T13:24:17.119Z,34.67
2022-08-30T13:26:45.394Z,33.99
2022-08-30T13:29:26.116Z,33.44
2022-08-30T13:31:57.102Z,32.78
2022-08-30T13:34:27.956Z,32.35
2022-08-30T13:36:58.017Z,31.93
2022-08-30T13:39:26.369Z,31.76
2022-08-30T13:42:31.342Z,31.71
2022-08-30T13:44:47.923Z,31.76
2022-08-30T13:47:33.259Z,31.86
2022-08-30T13:50:04.229Z,31.89
2022-08-30T13:52:31.771Z,31.90
2022-08-30T13:54:59.399Z,31.85
2022-08-30T14:00:21.778Z,31.43
2022-08-30T14:02:54.467Z,31.16
2022-08-30T14:06:15.562Z,30.87
2022-08-30T14:08:46.426Z,30.50
2022-08-30T14:11:20.956Z,30.40
2022-08-30T14:16:43.250Z,30.21
2022-08-30T14:19:12.933Z,30.05
2022-08-30T14:21:40.962Z,29.98
2022-08-30T14:24:09.378Z,29.79
2022-08-30T14:26:39.783Z,29.68
2022-08-30T14:29:10.205Z,29.60
2022-08-30T14:31:40.015Z,29.42
2022-08-30T14:34:09.333Z,29.24
2022-08-30T14:36:42.088Z,29.06
2022-08-30T14:39:14.628Z,28.95
2022-08-30T14:41:46.286Z,28.84
2022-08-30T14:44:15.141Z,28.76
2022-08-30T14:46:44.356Z,28.67
2022-08-30T14:49:13.409Z,28.54
2022-08-30T14:51:42.122Z,28.42
2022-08-30T14:54:10.153Z,28.25
2022-08-30T14:56:54.722Z,28.23
2022-08-30T14:59:25.522Z,28.20
2022-08-30T15:01:53.222Z,28.15
2022-08-30T15:04:21.643Z,28.01
2022-08-30T15:06:50.425Z,28.00
2022-08-30T15:09:26.061Z,27.91
2022-08-30T15:11:58.715Z,27.86
2022-08-30T15:14:28.097Z,27.80
2022-08-30T15:16:58.360Z,27.77
2022-08-30T15:19:26.829Z,27.73
2022-08-30T15:21:54.686Z,27.68
2022-08-30T15:24:29.495Z,27.55
2022-08-30T15:27:01.030Z,27.52
2022-08-30T15:29:30.673Z,27.44
2022-08-30T15:32:01.188Z,27.30
2022-08-30T15:34:29.375Z,27.14
2022-08-30T15:36:57.871Z,27.03
2022-08-30T15:39:25.545Z,26.86
2022-08-30T15:41:55.930Z,26.83
2022-08-30T15:44:27.353Z,26.78
2022-08-30T15:46:54.960Z,26.65
2022-08-30T15:49:24.483Z,26.61
2022-08-30T15:51:54.082Z,26.56
2022-08-30T15:54:23.873Z,26.56
2022-08-30T15:56:59.242Z,26.54
2022-08-30T15:59:29.191Z,26.50
2022-08-30T16:01:59.969Z,26.45
2022-08-30T16:04:27.611Z,26.41
2022-08-30T16:06:55.498Z,26.39
2022-08-30T16:09:23.325Z,26.32
2022-08-30T16:11:50.978Z,26.25
2022-08-30T16:14:21.255Z,26.27
2022-08-30T16:16:48.861Z,26.17
2022-08-30T16:19:16.497Z,26.11
2022-08-30T16:21:44.252Z,26.07
2022-08-30T16:24:14.071Z,26.02
2022-08-30T16:26:43.135Z,25.98
2022-08-30T16:29:12.510Z,25.86
2022-08-30T16:31:43.581Z,25.85
2022-08-30T16:34:14.833Z,25.82
2022-08-30T16:36:42.753Z,25.75
2022-08-30T16:39:11.167Z,25.68
2022-08-30T16:41:41.063Z,25.66
2022-08-30T16:44:08.813Z,25.64
2022-08-30T16:46:41.270Z,25.62
2022-08-30T16:49:10.507Z,25.58
2022-08-30T16:51:38.527Z,25.52
2022-08-30T16:54:07.803Z,25.48
2022-08-30T16:56:36.651Z,25.51
2022-08-30T16:59:10.919Z,25.48
2022-08-30T17:01:43.497Z,25.48
2022-08-30T17:04:15.910Z,25.47
2022-08-30T17:06:49.693Z,25.48
2022-08-30T17:09:18.617Z,25.47
2022-08-30T17:11:53.723Z,25.43
2022-08-30T17:17:11.599Z,25.36
2022-08-30T17:19:43.070Z,25.34
2022-08-30T17:22:12.867Z,25.35
2022-08-30T17:24:40.902Z,25.33
2022-08-30T17:27:08.780Z,25.35
2022-08-30T17:29:36.270Z,25.32
2022-08-30T17:32:06.301Z,25.32
2022-08-30T17:34:34.098Z,25.28
2022-08-30T17:37:01.999Z,25.27
2022-08-30T17:39:31.462Z,25.27
2022-08-30T17:41:59.116Z,25.24
2022-08-30T17:44:31.612Z,25.17
2022-08-30T17:47:03.324Z,25.11
2022-08-30T17:49:33.482Z,25.09
2022-08-30T17:52:01.730Z,25.05
2022-08-30T17:54:31.354Z,25.01
2022-08-30T17:57:00.466Z,25.04
2022-08-30T17:59:31.482Z,25.03
2022-08-30T18:01:59.729Z,24.98
2022-08-30T18:04:27.489Z,25.02
2022-08-30T18:06:55.830Z,25.06
2022-08-30T18:09:24.526Z,25.05
2022-08-30T18:11:52.572Z,25.10
2022-08-30T18:14:24.333Z,25.12
2022-08-30T18:16:54.549Z,25.13
2022-08-30T18:19:27.814Z,25.15
2022-08-30T18:21:58.864Z,25.12
2022-08-30T18:24:27.626Z,25.11
2022-08-30T18:27:03.533Z,25.13
2022-08-30T18:29:31.745Z,25.13
2022-08-30T18:32:01.063Z,25.08
2022-08-30T18:34:29.812Z,25.11
2022-08-30T18:36:57.526Z,25.08
2022-08-30T18:39:25.470Z,25.01
2022-08-30T18:41:54.676Z,25.00
2022-08-30T18:44:28.765Z,24.96
2022-08-30T18:47:00.474Z,24.86
2022-08-30T18:49:32.382Z,24.83
2022-08-30T18:52:01.934Z,24.82
2022-08-30T18:54:29.836Z,24.75
2022-08-30T18:56:57.506Z,24.74
2022-08-30T18:59:35.630Z,24.68
2022-08-30T19:02:17.505Z,24.65
2022-08-30T19:04:45.910Z,24.61
2022-08-30T19:07:15.623Z,24.56
2022-08-30T19:09:45.340Z,24.51
2022-08-30T19:12:13.995Z,24.50
2022-08-30T19:14:41.591Z,24.42
2022-08-30T19:17:09.309Z,24.38
2022-08-30T19:19:48.524Z,24.28
2022-08-30T19:22:24.005Z,24.27
2022-08-30T19:24:54.898Z,24.30
2022-08-30T19:27:37.145Z,24.24
2022-08-30T19:30:20.052Z,24.06
2022-08-30T19:32:51.612Z,24.02
2022-08-30T19:35:20.108Z,24.00
2022-08-30T19:37:47.732Z,23.96
2022-08-30T19:40:17.969Z,23.96
2022-08-30T19:45:34.404Z,23.82
2022-08-30T19:48:02.302Z,23.82
2022-08-30T19:50:32.323Z,23.75
2022-08-30T19:52:59.846Z,23.76
2022-08-30T19:55:31.267Z,23.72
2022-08-30T19:57:59.319Z,23.69
2022-08-30T20:00:27.297Z,23.64
2022-08-30T20:02:58.962Z,23.59
2022-08-30T20:05:27.160Z,23.53
2022-08-30T20:07:54.991Z,23.54
2022-08-30T20:10:28.968Z,23.53
2022-08-30T20:12:56.953Z,23.45
2022-08-30T20:15:25.781Z,23.47
2022-08-30T20:18:05.856Z,23.46
2022-08-30T20:20:41.985Z,23.43
2022-08-30T20:23:17.695Z,23.50
2022-08-30T20:24:23.857Z,25.40
2022-08-30T20:25:51.239Z,23.35
2022-08-30T20:28:20.003Z,23.30
2022-08-30T20:30:48.427Z,23.24
2022-08-30T20:33:17.355Z,23.22
2022-08-30T20:35:48.998Z,23.20
2022-08-30T20:38:22.566Z,23.15
2022-08-30T20:40:53.100Z,23.12
2022-08-30T20:43:25.758Z,23.03
2022-08-30T20:45:55.412Z,22.99
2022-08-30T20:48:27.230Z,22.96
2022-08-30T20:50:55.114Z,22.90
2022-08-30T20:53:22.715Z,22.86
2022-08-30T20:55:50.314Z,22.89
2022-08-30T20:58:18.067Z,22.86
2022-08-30T21:00:50.464Z,22.83
2022-08-30T21:03:26.237Z,22.82
2022-08-30T21:05:56.898Z,22.77
2022-08-30T21:08:25.204Z,22.80
2022-08-30T21:10:54.283Z,22.78
2022-08-30T21:13:22.550Z,22.78
2022-08-30T21:15:54.675Z,22.73
2022-08-30T21:18:29.662Z,22.73
2022-08-30T21:20:57.546Z,22.76
2022-08-30T21:23:25.458Z,22.76
2022-08-30T21:25:53.065Z,22.73
2022-08-30T21:28:21.691Z,22.75
2022-08-30T21:30:49.239Z,22.73
2022-08-30T21:33:16.886Z,22.78
2022-08-30T21:36:02.945Z,22.74
2022-08-30T21:38:30.531Z,22.78
2022-08-30T21:41:00.598Z,22.75
2022-08-30T21:43:28.087Z,22.78
2022-08-30T21:45:55.725Z,22.81
2022-08-30T21:48:26.137Z,22.82
2022-08-30T21:50:58.401Z,22.76
2022-08-30T21:53:26.363Z,22.74
2022-08-30T21:55:53.967Z,22.71
2022-08-30T21:58:22.871Z,22.63
2022-08-30T22:00:50.578Z,22.69
2022-08-30T22:03:18.245Z,22.66
2022-08-30T22:05:52.231Z,22.66
2022-08-30T22:08:19.738Z,22.60
2022-08-30T22:10:47.336Z,22.64
2022-08-30T22:13:15.289Z,22.64
2022-08-30T22:15:45.226Z,22.57
2022-08-30T22:18:14.949Z,22.60
2022-08-30T22:20:43.276Z,22.56
2022-08-30T22:23:12.121Z,22.55
2022-08-30T22:25:44.001Z,22.42
2022-08-30T22:28:13.778Z,22.40
2022-08-30T22:30:41.609Z,22.41
2022-08-30T22:33:09.546Z,22.35
2022-08-30T22:35:37.379Z,22.33
2022-08-30T22:38:05.470Z,22.28
2022-08-30T22:40:33.093Z,22.23
2022-08-30T22:43:01.083Z,22.17
2022-08-30T22:45:29.458Z,22.12
2022-08-30T22:47:57.044Z,22.04
2022-08-30T22:50:24.588Z,21.92
2022-08-30T22:52:52.367Z,21.95
2022-08-30T22:55:19.907Z,21.88
2022-08-30T22:57:47.456Z,21.82
2022-08-30T23:00:17.760Z,21.79
2022-08-30T23:02:53.109Z,21.75
2022-08-30T23:05:23.516Z,21.74
2022-08-30T23:07:52.318Z,21.68
2022-08-30T23:10:20.020Z,21.65
2022-08-30T23:12:47.568Z,21.56
2022-08-30T23:15:16.481Z,21.56
2022-08-30T23:17:44.030Z,21.47
2022-08-30T23:20:11.726Z,21.42
2022-08-30T23:22:39.564Z,21.39
2022-08-30T23:25:26.246Z,21.35
2022-08-30T23:28:15.037Z,21.34
2022-08-30T23:31:07.050Z,21.26
2022-08-30T23:33:55.905Z,21.23
2022-08-30T23:36:44.306Z,21.21
2022-08-30T23:39:30.429Z,21.09
2022-08-30T23:42:18.976Z,21.07
2022-08-30T23:45:07.133Z,20.97
2022-08-30T23:47:53.188Z,20.92
2022-08-30T23:50:39.242Z,20.93
2022-08-30T23:53:25.716Z,20.89
2022-08-30T23:56:11.847Z,20.80
2022-08-30T23:58:58.031Z,20.80
